Latest Coastal Weather Observations for Maria Island

IDT60701

Issued at 10:41 am EDT Sunday 21 December 2014 (issued every 10 minutes, with the page automatically refreshed every 10 minutes)

About coastal observations | Map of coastal stations | Coastal observations for TAS | Marine services | Other Formats
Station Details ID: 092124 Name: MARIA ISLAND (POINT LESUEUR) Lat: -42.66 Lon: 148.02 Height: 28.0 m
Data from the previous 72 hours. | See also: Recent months at Maria Island
Date/Time
EDT
Temp

°C
Wind Pressure Rain
since 9am
mm
Weather Cloud Vis
km
Sea
Height
m
Swell
Dir
 
Speed
knots
Gust
knots
hPa Trend Height
m
Period
s
Dir
21/10:30am 17.9 N 16 18 1013.1 - 0.0 - - - - - - -
21/10:00am 18.4 N 16 18 1013.3 - 0.0 - - - - - - -
21/09:30am 17.3 N 15 18 1013.7 - 0.0 - - - - - - -
21/09:00am 16.4 N 12 13 1014.0 - 0.0 - - - - - - -
21/08:30am 15.6 N 12 14 1014.0 - 0.0 - - - - - - -
21/08:00am 15.9 N 10 13 1013.9 - 0.0 - - - - - - -
21/07:30am 15.0 N 5 10 1014.3 - 0.0 - - - - - - -
21/07:00am 14.0 NE 8 10 1014.4 - 0.0 - - - - - - -
21/06:30am 13.9 N 4 5 1015.3 - 0.0 - - - - - - -
21/06:00am 13.7 N 3 6 1015.3 - 0.0 - - - - - - -
21/05:30am 13.4 NNE 5 7 1014.8 - 0.0 - - - - - - -
21/05:00am 13.4 NE 6 8 1014.4 - 0.0 - - - - - - -
21/04:30am 13.3 NNE 7 11 1014.2 - 0.0 - - - - - - -
21/04:00am 13.3 NE 2 3 1014.1 - 0.0 - - - - - - -
21/03:30am 13.2 NE 4 4 1014.2 - 0.0 - - - - - - -
21/03:00am 13.4 ENE 3 3 1014.5 - 0.0 - - - - - - -
21/02:30am 13.3 E 3 5 1014.8 - 0.0 - - - - - - -
21/02:00am 13.5 E 4 4 1015.1 - 0.0 - - - - - - -
21/01:30am 13.6 ESE 3 4 1015.5 - 0.0 - - - - - - -
21/01:00am 13.5 ESE 4 5 1015.7 - 0.0 - - - - - - -
21/12:30am 13.3 SE 4 6 1015.8 - 0.0 - - - - - - -
21/12:00am 13.6 SE 6 8 1016.0 - 0.0 - - - - - - -
 
Date/Time
EDT
Temp

°C
Wind Pressure Rain
since 9am
mm
Weather Cloud Vis
km
Sea
Height
m
Swell
Dir
 
Speed
knots
Gust
knots
hPa Trend Height
m
Period
s
Dir
20/11:30pm 13.3 SSE 6 8 1016.0 - 0.0 - - - - - - -
20/11:00pm 13.6 SE 7 8 1015.9 - 0.0 - - - - - - -
20/10:30pm 13.7 SSE 6 8 1016.1 - 0.0 - - - - - - -
20/10:00pm 13.7 S 11 13 1016.0 - 0.0 - - - - - - -
20/09:30pm 13.8 SE 9 11 1015.9 - 0.0 - - - - - - -
20/09:00pm 14.0 SSE 13 16 1015.4 - 0.0 - - - - - - -
20/08:30pm 14.3 SE 10 16 1015.4 - 0.0 - - - - - - -
20/08:00pm 15.4 SE 8 11 1015.1 - 0.0 - - - - - - -
20/07:30pm 15.8 S 16 19 1014.5 - 0.0 - - - - - - -
20/07:00pm 16.4 SSW 18 21 1013.8 - 0.0 - - - - - - -
20/06:30pm 15.8 SSW 20 23 1013.2 - 0.0 - - - - - - -
20/06:00pm 15.9 SSW 20 23 1012.8 - 0.0 - - - - - - -
20/05:59pm 16.0 SSW 20 23 1012.8 - 0.0 - - - - - - -
20/05:30pm 16.7 SSE 10 13 1012.9 - 0.0 - - - - - - -
20/05:00pm 16.5 SE 12 15 1012.7 - 0.0 - - - - - - -
20/04:30pm 17.8 SSE 14 17 1012.4 - 0.0 - - - - - - -
20/04:00pm 17.9 SE 12 15 1012.0 - 0.0 - - - - - - -
20/03:30pm 18.9 ESE 11 14 1011.8 - 0.0 - - - - - - -
20/03:00pm 18.2 ESE 12 16 1011.7 - 0.0 - - - - - - -
20/02:30pm 17.5 E 15 19 1011.6 - 0.0 - - - - - - -
20/02:00pm 16.9 ESE 14 19 1011.7 - 0.0 - - - - - - -
20/01:30pm 18.2 S 19 21 1011.4 - 0.0 - - - - - - -
20/01:00pm 17.9 S 17 21 1011.2 - 0.0 - - - - - - -
20/12:30pm 19.4 S 11 14 1011.4 - 0.0 - - - - - - -
20/12:00pm 18.3 S 11 14 1011.3 - 0.0 - - - - - - -
20/11:30am 18.8 S 10 14 1011.5 - 0.0 - - - - - - -
20/11:00am 17.6 S 8 10 1011.5 - 0.0 - - - - - - -
20/10:30am 18.1 SW 3 5 1011.3 - 0.0 - - - - - - -
20/10:00am 17.8 N 4 5 1011.3 - 0.0 - - - - - - -
20/09:30am 16.6 NNE 5 6 1011.2 - 0.0 - - - - - - -
20/09:00am 17.1 N 6 8 1011.2 - 0.0 - - - - - - -
20/08:30am 16.7 N 9 11 1011.0 - 0.0 - - - - - - -
20/08:00am 15.6 N 13 15 1010.6 - 0.0 - - - - - - -
20/07:30am 14.6 N 14 16 1010.5 - 0.0 - - - - - - -
20/07:00am 13.6 N 16 18 1010.3 - 0.0 - - - - - - -
20/06:30am 13.5 N 15 17 1010.2 - 0.0 - - - - - - -
20/06:00am 13.7 N 18 20 1009.8 - 0.0 - - - - - - -
20/05:30am 14.0 N 15 17 1009.9 - 0.0 - - - - - - -
20/05:00am 14.2 N 15 17 1009.8 - 0.0 - - - - - - -
20/04:30am 14.4 N 14 17 1009.8 - 0.0 - - - - - - -
20/04:00am 14.2 N 12 15 1010.1 - 0.0 - - - - - - -
20/03:30am 13.8 N 11 13 1010.4 - 0.0 - - - - - - -
20/03:00am 13.4 N 6 8 1011.0 - 0.0 - - - - - - -
20/02:30am 13.6 NNW 8 9 1011.4 - 0.0 - - - - - - -
20/02:00am 13.6 NNW 7 9 1011.9 - 0.0 - - - - - - -
20/01:30am 13.9 NW 8 11 1012.4 - 0.0 - - - - - - -
20/01:00am 14.0 NNW 10 12 1012.5 - 0.0 - - - - - - -
20/12:30am 13.9 N 11 12 1012.8 - 0.0 - - - - - - -
20/12:00am 13.9 N 13 15 1013.3 - 0.0 - - - - - - -
 
Date/Time
EDT
Temp

°C
Wind Pressure Rain
since 9am
mm
Weather Cloud Vis
km
Sea
Height
m
Swell
Dir
 
Speed
knots
Gust
knots
hPa Trend Height
m
Period
s
Dir
19/11:30pm 14.0 N 15 17 1013.3 - 0.0 - - - - - - -
19/11:00pm 13.9 N 14 16 1013.7 - 0.0 - - - - - - -
19/10:30pm 13.7 N 12 14 1013.9 - 0.0 - - - - - - -
19/10:00pm 13.7 N 11 13 1014.1 - 0.0 - - - - - - -
19/09:30pm 13.8 N 11 14 1014.0 - 0.0 - - - - - - -
19/09:00pm 13.7 N 10 13 1013.8 - 0.0 - - - - - - -
19/08:30pm 13.8 NNE 11 13 1013.6 - 0.0 - - - - - - -
19/08:00pm 14.0 NNE 10 13 1013.8 - 0.0 - - - - - - -
19/07:30pm 14.5 N 9 11 1013.4 - 0.0 - - - - - - -
19/07:00pm 14.3 ENE 4 7 1013.4 - 0.0 - - - - - - -
19/06:30pm 14.7 E 7 8 1013.0 - 0.0 - - - - - - -
19/06:00pm 14.4 E 8 11 1013.0 - 0.0 - - - - - - -
19/05:30pm 15.0 E 7 11 1012.7 - 0.0 - - - - - - -
19/05:00pm 14.7 E 10 13 1012.5 - 0.0 - - - - - - -
19/04:30pm 14.2 E 13 16 1012.4 - 0.0 - - - - - - -
19/04:00pm 14.9 E 13 15 1012.0 - 0.0 - - - - - - -
19/03:30pm 15.9 ESE 11 14 1011.7 - 0.0 - - - - - - -
19/03:00pm 16.6 S 13 17 1011.6 - 0.0 - - - - - - -
19/02:30pm 15.7 SSE 7 9 1011.7 - 0.0 - - - - - - -
19/02:00pm 16.8 S 11 13 1011.2 - 0.0 - - - - - - -
19/01:30pm 16.5 S 13 18 1011.4 - 0.0 - - - - - - -
19/01:00pm 17.0 S 13 17 1011.5 - 0.0 - - - - - - -
19/12:30pm 17.1 S 12 15 1011.3 - 0.0 - - - - - - -
19/12:00pm 16.7 S 13 15 1011.3 - 0.0 - - - - - - -
19/11:30am 15.6 S 10 13 1011.6 - 0.0 - - - - - - -
19/11:00am 14.6 S 12 16 1011.7 - 0.0 - - - - - - -
19/10:30am 14.6 SSW 15 19 1011.7 - 0.0 - - - - - - -
19/10:00am 14.7 SSW 14 19 1011.9 - 0.0 - - - - - - -
19/09:30am 14.6 SW 17 23 1011.6 - 0.0 - - - - - - -
19/09:00am 14.4 SW 12 16 1011.5 - 0.0 - - - - - - -
19/08:30am 13.9 WSW 11 15 1011.3 - 0.0 - - - - - - -
19/08:00am 13.2 SW 14 19 1011.1 - 0.0 - - - - - - -
19/07:30am 12.9 SW 12 14 1010.8 - 0.0 - - - - - - -
19/07:00am 12.3 WSW 10 13 1010.4 - 0.0 - - - - - - -
19/06:30am 11.7 WSW 8 11 1010.0 - 0.0 - - - - - - -
19/06:00am 10.8 W 8 11 1009.4 - 0.0 - - - - - - -
19/05:30am 11.1 W 7 9 1009.1 - 0.0 - - - - - - -
19/05:00am 11.6 SW 8 11 1008.5 - 0.0 - - - - - - -
19/04:30am 11.4 WSW 7 9 1008.2 - 0.0 - - - - - - -
19/04:00am 11.5 WSW 10 13 1007.9 - 0.0 - - - - - - -
19/03:30am 11.7 WSW 10 11 1007.7 - 0.0 - - - - - - -
19/03:00am 11.8 WSW 9 11 1007.5 - 0.0 - - - - - - -
19/02:30am 11.8 WSW 9 11 1007.3 - 0.0 - - - - - - -
19/02:00am 11.9 SW 8 11 1007.2 - 0.0 - - - - - - -
19/01:30am 12.1 WSW 9 12 1006.8 - 0.0 - - - - - - -
19/01:00am 12.4 WSW 8 11 1007.1 - 0.0 - - - - - - -
19/12:30am 12.4 SW 8 13 1006.6 - 0.0 - - - - - - -
19/12:00am 13.0 WSW 13 16 1005.9 - 0.0 - - - - - - -
 
Date/Time
EDT
Temp

°C
Wind Pressure Rain
since 9am
mm
Weather Cloud Vis
km
Sea
Height
m
Swell
Dir
 
Speed
knots
Gust
knots
hPa Trend Height
m
Period
s
Dir
18/11:30pm 13.5 WSW 14 20 1005.7 - 0.0 - - - - - - -
18/11:00pm 13.9 SW 14 17 1005.7 - 0.0 - - - - - - -
18/10:30pm 14.3 WSW 14 19 1005.6 - 0.0 - - - - - - -
18/10:00pm 14.6 W 14 20 1005.2 - 0.0 - - - - - - -
18/09:30pm 15.1 WSW 13 20 1004.4 - 0.0 - - - - - - -
18/09:00pm 15.6 SW 10 12 1003.6 - 0.0 - - - - - - -
18/08:30pm 15.8 W 14 17 1002.9 - 0.0 - - - - - - -
18/08:00pm 16.4 W 13 17 1002.3 - 0.0 - - - - - - -
18/07:30pm 16.4 W 12 17 1001.7 - 0.0 - - - - - - -
18/07:00pm 17.2 W 17 22 1001.1 - 0.0 - - - - - - -
18/06:30pm 16.0 W 18 23 1000.9 - 0.0 - - - - - - -
18/06:00pm 15.6 W 15 19 1000.4 - 0.0 - - - - - - -
18/05:30pm 15.6 W 22 29 1000.2 - 0.0 - - - - - - -
18/05:00pm 16.8 N 20 25 1000.3 - 0.0 - - - - - - -
18/04:30pm 18.5 NNE 19 23 999.3 - 0.0 - - - - - - -
18/04:00pm 18.3 NNE 21 26 999.3 - 0.0 - - - - - - -
18/03:30pm 18.7 N 19 25 999.5 - 0.0 - - - - - - -
18/03:00pm 19.2 NNE 16 25 999.9 - 0.0 - - - - - - -
18/02:30pm 18.4 NNE 16 20 1000.2 - 0.0 - - - - - - -
18/02:00pm 18.7 N 9 14 1000.7 - 0.0 - - - - - - -
18/01:30pm 18.6 N 11 15 1001.1 - 0.0 - - - - - - -
18/01:00pm 18.6 NNE 12 14 1001.7 - 0.0 - - - - - - -
18/12:30pm 17.8 N 17 19 1002.1 - 0.0 - - - - - - -
18/12:00pm 17.4 N 19 22 1002.3 - 0.0 - - - - - - -
18/11:30am 17.0 N 19 22 1002.5 - 0.0 - - - - - - -
18/11:00am 15.9 N 23 26 1002.6 - 0.0 - - - - - - -

Other Formats:

Comma delimited format used in spreadsheet applications
http://www.bom.gov.au/fwo/IDT60701/IDT60701.95988.axf

JavaScript Object Notation format (JSON) in row-major order
http://www.bom.gov.au/fwo/IDT60701/IDT60701.95988.json